sensor_id;sensor_type;location;lat;lon;timestamp;temperature;humidity
19924;DHT22;10124;53.068;18.224;2023-05-23T00:01:48;10.40;63.30
19924;DHT22;10124;53.068;18.224;2023-05-23T00:04:17;10.40;99.90
19924;DHT22;10124;53.068;18.224;2023-05-23T00:06:44;10.50;1.00
19924;DHT22;10124;53.068;18.224;2023-05-23T00:09:17;12.20;1.00
19924;DHT22;10124;53.068;18.224;2023-05-23T00:11:44;10.40;99.90
19924;DHT22;10124;53.068;18.224;2023-05-23T00:14:13;10.40;1.00
19924;DHT22;10124;53.068;18.224;2023-05-23T00:16:41;11.20;99.90
19924;DHT22;10124;53.068;18.224;2023-05-23T00:19:12;10.30;1.00
19924;DHT22;10124;53.068;18.224;2023-05-23T00:21:44;10.20;1.00
19924;DHT22;10124;53.068;18.224;2023-05-23T00:24:14;10.10;1.00
19924;DHT22;10124;53.068;18.224;2023-05-23T00:26:45;10.00;1.00
19924;DHT22;10124;53.068;18.224;2023-05-23T00:29:14;10.00;1.00
19924;DHT22;10124;53.068;18.224;2023-05-23T00:31:45;9.90;1.00
19924;DHT22;10124;53.068;18.224;2023-05-23T00:34:17;9.90;1.00
19924;DHT22;10124;53.068;18.224;2023-05-23T00:36:44;9.90;1.00
19924;DHT22;10124;53.068;18.224;2023-05-23T00:39:14;11.30;1.00
19924;DHT22;10124;53.068;18.224;2023-05-23T00:41:48;9.80;1.00
19924;DHT22;10124;53.068;18.224;2023-05-23T00:44:19;9.70;1.00
19924;DHT22;10124;53.068;18.224;2023-05-23T00:46:54;9.60;1.00
19924;DHT22;10124;53.068;18.224;2023-05-23T00:49:23;9.60;1.00
19924;DHT22;10124;53.068;18.224;2023-05-23T00:51:51;9.60;1.00
19924;DHT22;10124;53.068;18.224;2023-05-23T00:54:23;9.60;1.00
19924;DHT22;10124;53.068;18.224;2023-05-23T00:56:51;9.60;1.00
19924;DHT22;10124;53.068;18.224;2023-05-23T00:59:20;10.90;1.00
19924;DHT22;10124;53.068;18.224;2023-05-23T01:01:50;9.60;1.00
19924;DHT22;10124;53.068;18.224;2023-05-23T01:09:16;9.50;1.00
19924;DHT22;10124;53.068;18.224;2023-05-23T01:12:28;9.50;1.00
19924;DHT22;10124;53.068;18.224;2023-05-23T01:15:06;9.40;1.00
19924;DHT22;10124;53.068;18.224;2023-05-23T01:17:55;8.90;1.00
19924;DHT22;10124;53.068;18.224;2023-05-23T01:20:33;9.10;1.00
19924;DHT22;10124;53.068;18.224;2023-05-23T01:29:16;9.40;1.00
19924;DHT22;10124;53.068;18.224;2023-05-23T01:31:49;9.30;1.00
19924;DHT22;10124;53.068;18.224;2023-05-23T01:34:20;9.30;1.00
19924;DHT22;10124;53.068;18.224;2023-05-23T01:36:53;9.20;1.00
19924;DHT22;10124;53.068;18.224;2023-05-23T01:41:50;9.10;1.00
19924;DHT22;10124;53.068;18.224;2023-05-23T01:44:19;9.00;1.00
19924;DHT22;10124;53.068;18.224;2023-05-23T01:49:16;9.00;1.00
19924;DHT22;10124;53.068;18.224;2023-05-23T01:51:45;9.10;1.00
19924;DHT22;10124;53.068;18.224;2023-05-23T01:54:14;8.80;1.00
19924;DHT22;10124;53.068;18.224;2023-05-23T01:56:43;9.60;1.00
19924;DHT22;10124;53.068;18.224;2023-05-23T01:59:11;8.80;1.00
19924;DHT22;10124;53.068;18.224;2023-05-23T02:01:39;8.80;1.00
19924;DHT22;10124;53.068;18.224;2023-05-23T02:04:08;11.00;1.00
19924;DHT22;10124;53.068;18.224;2023-05-23T02:06:35;10.60;1.00
19924;DHT22;10124;53.068;18.224;2023-05-23T02:09:03;8.80;1.00
19924;DHT22;10124;53.068;18.224;2023-05-23T02:11:31;8.70;1.00
19924;DHT22;10124;53.068;18.224;2023-05-23T02:13:58;8.70;1.00
19924;DHT22;10124;53.068;18.224;2023-05-23T02:16:25;8.60;1.00
19924;DHT22;10124;53.068;18.224;2023-05-23T02:18:53;8.60;1.00
19924;DHT22;10124;53.068;18.224;2023-05-23T02:21:23;8.60;1.00
19924;DHT22;10124;53.068;18.224;2023-05-23T02:23:50;8.60;1.00
19924;DHT22;10124;53.068;18.224;2023-05-23T02:26:18;8.60;1.00
19924;DHT22;10124;53.068;18.224;2023-05-23T02:28:45;8.50;1.00
19924;DHT22;10124;53.068;18.224;2023-05-23T02:31:14;8.50;1.00
19924;DHT22;10124;53.068;18.224;2023-05-23T02:33:43;10.50;1.00
19924;DHT22;10124;53.068;18.224;2023-05-23T02:36:10;8.50;1.00
19924;DHT22;10124;53.068;18.224;2023-05-23T02:38:38;8.50;1.00
19924;DHT22;10124;53.068;18.224;2023-05-23T02:43:33;8.50;1.00
19924;DHT22;10124;53.068;18.224;2023-05-23T02:46:01;8.50;1.00
19924;DHT22;10124;53.068;18.224;2023-05-23T02:48:29;8.50;1.00
19924;DHT22;10124;53.068;18.224;2023-05-23T02:50:56;8.50;1.00
19924;DHT22;10124;53.068;18.224;2023-05-23T02:53:24;8.50;1.00
19924;DHT22;10124;53.068;18.224;2023-05-23T02:55:51;8.50;1.00
19924;DHT22;10124;53.068;18.224;2023-05-23T02:58:19;8.40;1.00
19924;DHT22;10124;53.068;18.224;2023-05-23T03:00:47;8.30;1.00
19924;DHT22;10124;53.068;18.224;2023-05-23T03:03:14;8.20;1.00
19924;DHT22;10124;53.068;18.224;2023-05-23T03:05:43;8.30;1.00
19924;DHT22;10124;53.068;18.224;2023-05-23T03:08:10;8.40;1.00
19924;DHT22;10124;53.068;18.224;2023-05-23T03:10:39;8.30;1.00
19924;DHT22;10124;53.068;18.224;2023-05-23T03:13:06;8.40;1.00
19924;DHT22;10124;53.068;18.224;2023-05-23T03:15:35;8.40;1.00
19924;DHT22;10124;53.068;18.224;2023-05-23T03:18:02;8.40;1.00
19924;DHT22;10124;53.068;18.224;2023-05-23T03:20:31;8.20;1.00
19924;DHT22;10124;53.068;18.224;2023-05-23T03:22:58;8.40;1.00
19924;DHT22;10124;53.068;18.224;2023-05-23T03:25:25;8.70;1.00
19924;DHT22;10124;53.068;18.224;2023-05-23T03:27:53;8.50;1.00
19924;DHT22;10124;53.068;18.224;2023-05-23T03:30:21;8.20;1.00
19924;DHT22;10124;53.068;18.224;2023-05-23T03:32:48;8.30;1.00
19924;DHT22;10124;53.068;18.224;2023-05-23T03:35:18;8.60;1.00
19924;DHT22;10124;53.068;18.224;2023-05-23T03:37:46;8.60;1.00
19924;DHT22;10124;53.068;18.224;2023-05-23T03:40:13;8.50;1.00
19924;DHT22;10124;53.068;18.224;2023-05-23T03:42:41;8.80;1.00
19924;DHT22;10124;53.068;18.224;2023-05-23T03:45:10;8.60;1.00
19924;DHT22;10124;53.068;18.224;2023-05-23T03:47:38;8.60;1.00
19924;DHT22;10124;53.068;18.224;2023-05-23T03:50:06;8.30;1.00
19924;DHT22;10124;53.068;18.224;2023-05-23T03:52:35;8.70;1.00
19924;DHT22;10124;53.068;18.224;2023-05-23T03:55:03;8.70;1.00
19924;DHT22;10124;53.068;18.224;2023-05-23T03:59:58;9.50;1.00
19924;DHT22;10124;53.068;18.224;2023-05-23T04:02:25;9.10;1.00
19924;DHT22;10124;53.068;18.224;2023-05-23T04:04:53;9.20;1.00
19924;DHT22;10124;53.068;18.224;2023-05-23T04:07:23;9.30;1.00
19924;DHT22;10124;53.068;18.224;2023-05-23T04:09:53;9.30;1.00
19924;DHT22;10124;53.068;18.224;2023-05-23T04:12:20;9.40;1.00
19924;DHT22;10124;53.068;18.224;2023-05-23T04:14:48;9.50;1.00
19924;DHT22;10124;53.068;18.224;2023-05-23T04:17:16;9.60;1.00
19924;DHT22;10124;53.068;18.224;2023-05-23T04:24:43;10.00;1.00
19924;DHT22;10124;53.068;18.224;2023-05-23T04:27:10;10.30;1.00
19924;DHT22;10124;53.068;18.224;2023-05-23T04:29:38;10.30;1.00
19924;DHT22;10124;53.068;18.224;2023-05-23T04:32:05;10.40;1.00
19924;DHT22;10124;53.068;18.224;2023-05-23T04:37:04;10.70;1.00
19924;DHT22;10124;53.068;18.224;2023-05-23T04:39:33;10.70;1.00
19924;DHT22;10124;53.068;18.224;2023-05-23T04:42:21;10.90;1.00
19924;DHT22;10124;53.068;18.224;2023-05-23T04:45:02;11.10;1.00
19924;DHT22;10124;53.068;18.224;2023-05-23T04:48:02;11.00;1.00
19924;DHT22;10124;53.068;18.224;2023-05-23T04:50:35;11.20;1.00
19924;DHT22;10124;53.068;18.224;2023-05-23T04:53:03;11.40;1.00
19924;DHT22;10124;53.068;18.224;2023-05-23T04:55:31;11.50;1.00
19924;DHT22;10124;53.068;18.224;2023-05-23T04:57:59;11.70;1.00
19924;DHT22;10124;53.068;18.224;2023-05-23T05:00:27;11.90;1.00
19924;DHT22;10124;53.068;18.224;2023-05-23T05:02:59;12.10;1.00
19924;DHT22;10124;53.068;18.224;2023-05-23T05:10:27;12.70;1.00
19924;DHT22;10124;53.068;18.224;2023-05-23T05:17:55;13.20;1.00
19924;DHT22;10124;53.068;18.224;2023-05-23T05:20:23;13.30;1.00
19924;DHT22;10124;53.068;18.224;2023-05-23T05:22:57;13.50;1.00
19924;DHT22;10124;53.068;18.224;2023-05-23T05:25:25;13.60;1.00
19924;DHT22;10124;53.068;18.224;2023-05-23T05:27:53;13.80;1.00
19924;DHT22;10124;53.068;18.224;2023-05-23T05:30:21;13.90;1.00
19924;DHT22;10124;53.068;18.224;2023-05-23T05:32:53;14.10;1.00
19924;DHT22;10124;53.068;18.224;2023-05-23T05:35:20;14.40;1.00
19924;DHT22;10124;53.068;18.224;2023-05-23T05:37:48;14.50;1.00
19924;DHT22;10124;53.068;18.224;2023-05-23T05:40:15;14.80;1.00
19924;DHT22;10124;53.068;18.224;2023-05-23T05:42:43;14.90;1.00
19924;DHT22;10124;53.068;18.224;2023-05-23T05:45:11;15.30;1.00
19924;DHT22;10124;53.068;18.224;2023-05-23T05:47:40;15.60;1.00
19924;DHT22;10124;53.068;18.224;2023-05-23T05:50:08;15.70;1.00
19924;DHT22;10124;53.068;18.224;2023-05-23T05:52:37;16.00;1.00
19924;DHT22;10124;53.068;18.224;2023-05-23T05:55:08;16.20;1.00
19924;DHT22;10124;53.068;18.224;2023-05-23T05:57:39;16.60;1.00
19924;DHT22;10124;53.068;18.224;2023-05-23T06:00:10;17.20;1.00
19924;DHT22;10124;53.068;18.224;2023-05-23T06:25:20;19.60;1.00
19924;DHT22;10124;53.068;18.224;2023-05-23T06:27:48;19.80;1.00
19924;DHT22;10124;53.068;18.224;2023-05-23T06:30:16;19.90;99.90
19924;DHT22;10124;53.068;18.224;2023-05-23T06:32:44;20.10;99.90
19924;DHT22;10124;53.068;18.224;2023-05-23T06:35:12;20.10;99.90
19924;DHT22;10124;53.068;18.224;2023-05-23T06:37:39;20.30;99.90
19924;DHT22;10124;53.068;18.224;2023-05-23T06:40:12;20.50;99.90
19924;DHT22;10124;53.068;18.224;2023-05-23T06:42:42;21.00;99.90
19924;DHT22;10124;53.068;18.224;2023-05-23T06:45:18;21.30;99.90
19924;DHT22;10124;53.068;18.224;2023-05-23T06:47:46;21.70;99.90
19924;DHT22;10124;53.068;18.224;2023-05-23T06:50:14;21.70;1.00
19924;DHT22;10124;53.068;18.224;2023-05-23T07:05:50;23.10;1.00
19924;DHT22;10124;53.068;18.224;2023-05-23T07:08:19;23.20;1.00
19924;DHT22;10124;53.068;18.224;2023-05-23T07:10:58;23.40;1.00
19924;DHT22;10124;53.068;18.224;2023-05-23T07:13:46;23.80;1.00
19924;DHT22;10124;53.068;18.224;2023-05-23T07:16:21;24.20;1.00
19924;DHT22;10124;53.068;18.224;2023-05-23T07:19:03;24.80;1.00
19924;DHT22;10124;53.068;18.224;2023-05-23T07:21:35;24.70;1.00
19924;DHT22;10124;53.068;18.224;2023-05-23T07:24:04;24.60;1.00
19924;DHT22;10124;53.068;18.224;2023-05-23T07:26:32;24.70;1.00
19924;DHT22;10124;53.068;18.224;2023-05-23T07:29:00;24.60;1.00
19924;DHT22;10124;53.068;18.224;2023-05-23T07:31:28;24.70;1.00
19924;DHT22;10124;53.068;18.224;2023-05-23T07:33:58;24.50;1.00
19924;DHT22;10124;53.068;18.224;2023-05-23T07:36:34;24.40;1.00
19924;DHT22;10124;53.068;18.224;2023-05-23T07:39:06;24.60;1.00
19924;DHT22;10124;53.068;18.224;2023-05-23T07:41:34;24.40;1.00
19924;DHT22;10124;53.068;18.224;2023-05-23T07:44:01;24.30;1.00
19924;DHT22;10124;53.068;18.224;2023-05-23T07:46:29;24.10;1.00
19924;DHT22;10124;53.068;18.224;2023-05-23T07:48:56;24.40;1.00
19924;DHT22;10124;53.068;18.224;2023-05-23T07:51:25;24.40;1.00
19924;DHT22;10124;53.068;18.224;2023-05-23T07:53:54;24.30;1.00
19924;DHT22;10124;53.068;18.224;2023-05-23T07:56:23;24.70;1.00
19924;DHT22;10124;53.068;18.224;2023-05-23T07:58:50;25.20;1.00
19924;DHT22;10124;53.068;18.224;2023-05-23T08:01:18;25.60;1.00
19924;DHT22;10124;53.068;18.224;2023-05-23T08:04:03;25.50;1.00
19924;DHT22;10124;53.068;18.224;2023-05-23T08:06:34;25.40;1.00
19924;DHT22;10124;53.068;18.224;2023-05-23T08:09:09;25.80;1.00
19924;DHT22;10124;53.068;18.224;2023-05-23T08:11:41;26.10;1.00
19924;DHT22;10124;53.068;18.224;2023-05-23T08:14:09;25.70;1.00
19924;DHT22;10124;53.068;18.224;2023-05-23T08:16:37;25.60;1.00
19924;DHT22;10124;53.068;18.224;2023-05-23T08:19:13;25.90;1.00
19924;DHT22;10124;53.068;18.224;2023-05-23T08:21:40;26.00;1.00
19924;DHT22;10124;53.068;18.224;2023-05-23T08:24:08;26.00;1.00
19924;DHT22;10124;53.068;18.224;2023-05-23T08:26:38;26.30;1.00
19924;DHT22;10124;53.068;18.224;2023-05-23T08:29:09;26.60;1.00
19924;DHT22;10124;53.068;18.224;2023-05-23T08:31:37;26.70;1.00
19924;DHT22;10124;53.068;18.224;2023-05-23T08:34:05;26.80;1.00
19924;DHT22;10124;53.068;18.224;2023-05-23T08:36:36;27.20;1.00
19924;DHT22;10124;53.068;18.224;2023-05-23T08:39:06;27.40;1.00
19924;DHT22;10124;53.068;18.224;2023-05-23T08:41:39;27.70;1.00
19924;DHT22;10124;53.068;18.224;2023-05-23T08:44:10;28.10;1.00
19924;DHT22;10124;53.068;18.224;2023-05-23T08:46:47;29.00;1.00
19924;DHT22;10124;53.068;18.224;2023-05-23T08:49:37;29.60;1.00
19924;DHT22;10124;53.068;18.224;2023-05-23T08:52:09;29.90;1.00
19924;DHT22;10124;53.068;18.224;2023-05-23T08:54:41;30.00;1.00
19924;DHT22;10124;53.068;18.224;2023-05-23T08:57:12;29.90;1.00
19924;DHT22;10124;53.068;18.224;2023-05-23T08:59:45;29.70;1.00
19924;DHT22;10124;53.068;18.224;2023-05-23T09:02:14;29.80;1.00
19924;DHT22;10124;53.068;18.224;2023-05-23T09:04:42;29.60;1.00
19924;DHT22;10124;53.068;18.224;2023-05-23T09:07:15;29.90;1.00
19924;DHT22;10124;53.068;18.224;2023-05-23T09:09:44;29.80;1.00
19924;DHT22;10124;53.068;18.224;2023-05-23T09:12:14;29.30;1.00
19924;DHT22;10124;53.068;18.224;2023-05-23T09:14:44;29.90;1.00
19924;DHT22;10124;53.068;18.224;2023-05-23T09:17:18;29.60;1.00
19924;DHT22;10124;53.068;18.224;2023-05-23T09:19:46;29.50;1.00
19924;DHT22;10124;53.068;18.224;2023-05-23T09:22:35;28.50;1.00
19924;DHT22;10124;53.068;18.224;2023-05-23T09:25:08;28.10;1.00
19924;DHT22;10124;53.068;18.224;2023-05-23T09:27:38;28.20;1.00
19924;DHT22;10124;53.068;18.224;2023-05-23T09:30:08;27.90;1.00
19924;DHT22;10124;53.068;18.224;2023-05-23T09:32:37;27.30;1.00
19924;DHT22;10124;53.068;18.224;2023-05-23T09:35:06;27.40;1.00
19924;DHT22;10124;53.068;18.224;2023-05-23T09:37:41;28.40;1.00
19924;DHT22;10124;53.068;18.224;2023-05-23T09:40:13;28.50;1.00
19924;DHT22;10124;53.068;18.224;2023-05-23T09:42:49;28.70;1.00
19924;DHT22;10124;53.068;18.224;2023-05-23T09:47:49;29.30;1.00
19924;DHT22;10124;53.068;18.224;2023-05-23T09:50:19;29.30;1.00
19924;DHT22;10124;53.068;18.224;2023-05-23T09:52:48;28.20;1.00
19924;DHT22;10124;53.068;18.224;2023-05-23T09:55:15;28.40;1.00
19924;DHT22;10124;53.068;18.224;2023-05-23T09:57:43;28.90;1.00
19924;DHT22;10124;53.068;18.224;2023-05-23T10:00:12;28.90;1.00
19924;DHT22;10124;53.068;18.224;2023-05-23T10:05:32;28.90;1.00
19924;DHT22;10124;53.068;18.224;2023-05-23T10:08:04;28.90;1.00
19924;DHT22;10124;53.068;18.224;2023-05-23T10:10:34;29.40;1.00
19924;DHT22;10124;53.068;18.224;2023-05-23T10:15:38;30.50;1.00
19924;DHT22;10124;53.068;18.224;2023-05-23T10:20:39;31.30;1.00
19924;DHT22;10124;53.068;18.224;2023-05-23T10:23:10;30.90;1.00
19924;DHT22;10124;53.068;18.224;2023-05-23T10:25:39;30.90;1.00
19924;DHT22;10124;53.068;18.224;2023-05-23T10:28:08;31.00;1.00
19924;DHT22;10124;53.068;18.224;2023-05-23T10:30:36;30.90;1.00
19924;DHT22;10124;53.068;18.224;2023-05-23T10:33:04;30.50;1.00
19924;DHT22;10124;53.068;18.224;2023-05-23T10:41:22;28.70;1.00
19924;DHT22;10124;53.068;18.224;2023-05-23T10:47:02;28.50;1.00
19924;DHT22;10124;53.068;18.224;2023-05-23T10:49:38;27.30;1.00
19924;DHT22;10124;53.068;18.224;2023-05-23T10:52:07;27.00;1.00
19924;DHT22;10124;53.068;18.224;2023-05-23T10:54:40;27.50;1.00
19924;DHT22;10124;53.068;18.224;2023-05-23T10:57:09;27.40;1.00
19924;DHT22;10124;53.068;18.224;2023-05-23T10:59:38;29.20;1.00
19924;DHT22;10124;53.068;18.224;2023-05-23T11:02:17;30.20;1.00
19924;DHT22;10124;53.068;18.224;2023-05-23T11:05:18;30.10;1.00
19924;DHT22;10124;53.068;18.224;2023-05-23T11:08:12;29.20;1.00
19924;DHT22;10124;53.068;18.224;2023-05-23T11:10:55;28.90;1.00
19924;DHT22;10124;53.068;18.224;2023-05-23T11:13:22;28.50;1.00
19924;DHT22;10124;53.068;18.224;2023-05-23T11:15:50;28.60;1.00
19924;DHT22;10124;53.068;18.224;2023-05-23T11:18:26;28.10;1.00
19924;DHT22;10124;53.068;18.224;2023-05-23T11:20:54;27.10;1.00
19924;DHT22;10124;53.068;18.224;2023-05-23T11:23:39;26.70;1.00
19924;DHT22;10124;53.068;18.224;2023-05-23T11:26:30;26.20;1.00
19924;DHT22;10124;53.068;18.224;2023-05-23T11:28:58;25.80;1.00
19924;DHT22;10124;53.068;18.224;2023-05-23T11:31:26;25.40;1.00
19924;DHT22;10124;53.068;18.224;2023-05-23T11:33:54;25.20;1.00
19924;DHT22;10124;53.068;18.224;2023-05-23T11:36:22;24.90;1.00
19924;DHT22;10124;53.068;18.224;2023-05-23T11:38:51;24.80;1.00
19924;DHT22;10124;53.068;18.224;2023-05-23T11:41:20;24.80;1.00
19924;DHT22;10124;53.068;18.224;2023-05-23T11:43:51;24.90;1.00
19924;DHT22;10124;53.068;18.224;2023-05-23T11:46:19;24.80;1.00
19924;DHT22;10124;53.068;18.224;2023-05-23T11:48:47;24.80;1.00
19924;DHT22;10124;53.068;18.224;2023-05-23T11:51:16;24.70;1.00
19924;DHT22;10124;53.068;18.224;2023-05-23T11:53:43;24.50;1.00
19924;DHT22;10124;53.068;18.224;2023-05-23T11:56:11;24.60;1.00
19924;DHT22;10124;53.068;18.224;2023-05-23T11:58:41;24.60;1.00
19924;DHT22;10124;53.068;18.224;2023-05-23T12:01:12;24.30;1.00
19924;DHT22;10124;53.068;18.224;2023-05-23T12:03:50;24.30;1.00
19924;DHT22;10124;53.068;18.224;2023-05-23T12:06:20;24.40;1.00
19924;DHT22;10124;53.068;18.224;2023-05-23T12:08:47;24.20;1.00
19924;DHT22;10124;53.068;18.224;2023-05-23T12:11:15;24.10;1.00
19924;DHT22;10124;53.068;18.224;2023-05-23T12:13:44;24.10;1.00
19924;DHT22;10124;53.068;18.224;2023-05-23T12:16:13;24.20;1.00
19924;DHT22;10124;53.068;18.224;2023-05-23T12:18:42;24.10;1.00
19924;DHT22;10124;53.068;18.224;2023-05-23T12:21:10;24.10;1.00
19924;DHT22;10124;53.068;18.224;2023-05-23T12:23:38;24.00;1.00
19924;DHT22;10124;53.068;18.224;2023-05-23T12:26:07;23.90;1.00
19924;DHT22;10124;53.068;18.224;2023-05-23T12:28:40;23.80;1.00
19924;DHT22;10124;53.068;18.224;2023-05-23T12:31:21;23.80;1.00
19924;DHT22;10124;53.068;18.224;2023-05-23T12:33:51;23.70;1.00
19924;DHT22;10124;53.068;18.224;2023-05-23T12:36:25;23.60;1.00
19924;DHT22;10124;53.068;18.224;2023-05-23T12:39:01;23.60;1.00
19924;DHT22;10124;53.068;18.224;2023-05-23T12:41:29;23.50;1.00
19924;DHT22;10124;53.068;18.224;2023-05-23T12:43:56;23.40;1.00
19924;DHT22;10124;53.068;18.224;2023-05-23T12:46:25;23.40;1.00
19924;DHT22;10124;53.068;18.224;2023-05-23T12:48:53;23.40;1.00
19924;DHT22;10124;53.068;18.224;2023-05-23T12:51:21;23.50;1.00
19924;DHT22;10124;53.068;18.224;2023-05-23T12:53:49;23.50;1.00
19924;DHT22;10124;53.068;18.224;2023-05-23T12:56:17;23.50;1.00
19924;DHT22;10124;53.068;18.224;2023-05-23T13:01:13;23.60;1.00
19924;DHT22;10124;53.068;18.224;2023-05-23T13:03:40;23.70;1.00
19924;DHT22;10124;53.068;18.224;2023-05-23T13:06:08;23.80;1.00
19924;DHT22;10124;53.068;18.224;2023-05-23T13:08:35;24.00;1.00
19924;DHT22;10124;53.068;18.224;2023-05-23T13:11:03;24.10;1.00
19924;DHT22;10124;53.068;18.224;2023-05-23T13:13:31;24.30;1.00
19924;DHT22;10124;53.068;18.224;2023-05-23T13:16:00;24.40;1.00
19924;DHT22;10124;53.068;18.224;2023-05-23T13:18:27;24.30;1.00
19924;DHT22;10124;53.068;18.224;2023-05-23T13:20:55;24.50;1.00
19924;DHT22;10124;53.068;18.224;2023-05-23T13:23:22;24.60;1.00
19924;DHT22;10124;53.068;18.224;2023-05-23T13:25:52;24.60;1.00
19924;DHT22;10124;53.068;18.224;2023-05-23T13:28:19;24.40;1.00
19924;DHT22;10124;53.068;18.224;2023-05-23T13:30:47;24.60;1.00
19924;DHT22;10124;53.068;18.224;2023-05-23T13:33:15;24.40;1.00
19924;DHT22;10124;53.068;18.224;2023-05-23T13:35:42;24.40;1.00
19924;DHT22;10124;53.068;18.224;2023-05-23T13:38:10;24.40;1.00
19924;DHT22;10124;53.068;18.224;2023-05-23T13:40:39;24.20;1.00
19924;DHT22;10124;53.068;18.224;2023-05-23T13:43:06;24.10;1.00
19924;DHT22;10124;53.068;18.224;2023-05-23T13:45:34;24.10;1.00
19924;DHT22;10124;53.068;18.224;2023-05-23T13:48:01;24.00;1.00
19924;DHT22;10124;53.068;18.224;2023-05-23T13:50:29;24.00;1.00
19924;DHT22;10124;53.068;18.224;2023-05-23T13:52:57;24.00;1.00
19924;DHT22;10124;53.068;18.224;2023-05-23T13:55:24;24.20;1.00
19924;DHT22;10124;53.068;18.224;2023-05-23T13:57:52;24.50;1.00
19924;DHT22;10124;53.068;18.224;2023-05-23T14:00:20;24.60;1.00
19924;DHT22;10124;53.068;18.224;2023-05-23T14:02:47;24.40;1.00
19924;DHT22;10124;53.068;18.224;2023-05-23T14:05:15;24.50;1.00
19924;DHT22;10124;53.068;18.224;2023-05-23T14:07:42;24.70;1.00
19924;DHT22;10124;53.068;18.224;2023-05-23T14:10:13;24.60;1.00
19924;DHT22;10124;53.068;18.224;2023-05-23T14:12:43;24.50;1.00
19924;DHT22;10124;53.068;18.224;2023-05-23T14:15:11;24.70;1.00
19924;DHT22;10124;53.068;18.224;2023-05-23T14:17:38;24.70;1.00
19924;DHT22;10124;53.068;18.224;2023-05-23T14:20:06;24.60;1.00
19924;DHT22;10124;53.068;18.224;2023-05-23T14:22:34;24.40;1.00
19924;DHT22;10124;53.068;18.224;2023-05-23T14:25:02;24.20;1.00
19924;DHT22;10124;53.068;18.224;2023-05-23T14:27:31;24.20;1.00
19924;DHT22;10124;53.068;18.224;2023-05-23T14:29:59;24.10;1.00
19924;DHT22;10124;53.068;18.224;2023-05-23T14:32:26;24.10;1.00
19924;DHT22;10124;53.068;18.224;2023-05-23T14:34:54;23.90;1.00
19924;DHT22;10124;53.068;18.224;2023-05-23T14:37:21;24.00;1.00
19924;DHT22;10124;53.068;18.224;2023-05-23T14:39:49;24.00;1.00
19924;DHT22;10124;53.068;18.224;2023-05-23T14:42:16;24.10;1.00
19924;DHT22;10124;53.068;18.224;2023-05-23T14:44:44;24.30;1.00
19924;DHT22;10124;53.068;18.224;2023-05-23T14:47:11;24.40;1.00
19924;DHT22;10124;53.068;18.224;2023-05-23T14:49:39;24.40;1.00
19924;DHT22;10124;53.068;18.224;2023-05-23T14:52:06;24.30;1.00
19924;DHT22;10124;53.068;18.224;2023-05-23T14:54:34;24.40;1.00
19924;DHT22;10124;53.068;18.224;2023-05-23T14:57:01;24.40;1.00
19924;DHT22;10124;53.068;18.224;2023-05-23T14:59:30;24.50;1.00
19924;DHT22;10124;53.068;18.224;2023-05-23T15:01:58;24.70;1.00
19924;DHT22;10124;53.068;18.224;2023-05-23T15:04:26;24.80;1.00
19924;DHT22;10124;53.068;18.224;2023-05-23T15:06:53;24.80;1.00
19924;DHT22;10124;53.068;18.224;2023-05-23T15:09:21;24.90;1.00
19924;DHT22;10124;53.068;18.224;2023-05-23T15:11:49;24.70;1.00
19924;DHT22;10124;53.068;18.224;2023-05-23T15:14:16;24.70;1.00
19924;DHT22;10124;53.068;18.224;2023-05-23T15:16:44;24.70;1.00
19924;DHT22;10124;53.068;18.224;2023-05-23T15:19:12;24.60;1.00
19924;DHT22;10124;53.068;18.224;2023-05-23T15:21:40;24.50;1.00
19924;DHT22;10124;53.068;18.224;2023-05-23T15:24:17;24.40;1.00
19924;DHT22;10124;53.068;18.224;2023-05-23T15:26:45;24.40;1.00
19924;DHT22;10124;53.068;18.224;2023-05-23T15:29:13;24.30;1.00
19924;DHT22;10124;53.068;18.224;2023-05-23T15:31:44;24.40;1.00
19924;DHT22;10124;53.068;18.224;2023-05-23T15:34:12;24.20;1.00
19924;DHT22;10124;53.068;18.224;2023-05-23T15:36:39;24.00;1.00
19924;DHT22;10124;53.068;18.224;2023-05-23T15:39:09;24.10;1.00
19924;DHT22;10124;53.068;18.224;2023-05-23T15:41:36;24.10;1.00
19924;DHT22;10124;53.068;18.224;2023-05-23T15:44:04;24.10;1.00
19924;DHT22;10124;53.068;18.224;2023-05-23T15:46:32;24.20;1.00
19924;DHT22;10124;53.068;18.224;2023-05-23T15:49:00;24.10;1.00
19924;DHT22;10124;53.068;18.224;2023-05-23T15:51:39;24.00;1.00
19924;DHT22;10124;53.068;18.224;2023-05-23T15:54:07;23.80;1.00
19924;DHT22;10124;53.068;18.224;2023-05-23T15:56:34;23.90;1.00
19924;DHT22;10124;53.068;18.224;2023-05-23T15:59:02;23.80;1.00
19924;DHT22;10124;53.068;18.224;2023-05-23T16:01:31;23.70;1.00
19924;DHT22;10124;53.068;18.224;2023-05-23T16:04:00;23.80;1.00
19924;DHT22;10124;53.068;18.224;2023-05-23T16:06:28;23.80;1.00
19924;DHT22;10124;53.068;18.224;2023-05-23T16:08:55;23.70;1.00
19924;DHT22;10124;53.068;18.224;2023-05-23T16:11:23;23.60;1.00
19924;DHT22;10124;53.068;18.224;2023-05-23T16:13:50;23.60;1.00
19924;DHT22;10124;53.068;18.224;2023-05-23T16:18:46;23.50;1.00
19924;DHT22;10124;53.068;18.224;2023-05-23T16:21:14;23.50;1.00
19924;DHT22;10124;53.068;18.224;2023-05-23T16:23:47;23.40;1.00
19924;DHT22;10124;53.068;18.224;2023-05-23T16:26:16;23.30;1.00
19924;DHT22;10124;53.068;18.224;2023-05-23T16:28:45;23.20;1.00
19924;DHT22;10124;53.068;18.224;2023-05-23T16:31:13;23.20;1.00
19924;DHT22;10124;53.068;18.224;2023-05-23T16:33:43;23.20;1.00
19924;DHT22;10124;53.068;18.224;2023-05-23T16:36:11;23.20;1.00
19924;DHT22;10124;53.068;18.224;2023-05-23T16:38:39;23.00;1.00
19924;DHT22;10124;53.068;18.224;2023-05-23T16:41:07;23.00;1.00
19924;DHT22;10124;53.068;18.224;2023-05-23T16:43:35;23.00;1.00
19924;DHT22;10124;53.068;18.224;2023-05-23T16:46:03;23.00;1.00
19924;DHT22;10124;53.068;18.224;2023-05-23T16:48:31;22.90;1.00
19924;DHT22;10124;53.068;18.224;2023-05-23T16:50:58;22.80;1.00
19924;DHT22;10124;53.068;18.224;2023-05-23T16:53:26;22.70;1.00
19924;DHT22;10124;53.068;18.224;2023-05-23T16:55:54;22.50;1.00
19924;DHT22;10124;53.068;18.224;2023-05-23T16:58:22;22.50;1.00
19924;DHT22;10124;53.068;18.224;2023-05-23T17:00:49;22.40;1.00
19924;DHT22;10124;53.068;18.224;2023-05-23T17:03:17;22.30;1.00
19924;DHT22;10124;53.068;18.224;2023-05-23T17:05:45;22.20;1.00
19924;DHT22;10124;53.068;18.224;2023-05-23T17:08:15;22.10;1.00
19924;DHT22;10124;53.068;18.224;2023-05-23T17:10:43;21.90;1.00
19924;DHT22;10124;53.068;18.224;2023-05-23T17:13:11;21.80;1.00
19924;DHT22;10124;53.068;18.224;2023-05-23T17:15:38;21.70;1.00
19924;DHT22;10124;53.068;18.224;2023-05-23T17:18:07;21.60;1.00
19924;DHT22;10124;53.068;18.224;2023-05-23T17:20:35;21.60;1.00
19924;DHT22;10124;53.068;18.224;2023-05-23T17:23:03;21.30;1.00
19924;DHT22;10124;53.068;18.224;2023-05-23T17:25:32;21.40;1.00
19924;DHT22;10124;53.068;18.224;2023-05-23T17:28:00;21.50;1.00